sensor_id;sensor_type;location;lat;lon;timestamp;P1;durP1;ratioP1;P2;durP2;ratioP2
76826;SDS011;65788;52.284;20.890;2023-07-24T00:00:05;8.20;;;5.60;;
76826;SDS011;65788;52.284;20.890;2023-07-24T00:02:32;8.30;;;5.30;;
76826;SDS011;65788;52.284;20.890;2023-07-24T00:04:59;7.10;;;5.00;;
76826;SDS011;65788;52.284;20.890;2023-07-24T00:07:26;8.30;;;5.40;;
76826;SDS011;65788;52.284;20.890;2023-07-24T00:09:53;8.60;;;5.60;;
76826;SDS011;65788;52.284;20.890;2023-07-24T00:12:22;7.80;;;5.70;;
76826;SDS011;65788;52.284;20.890;2023-07-24T00:14:49;9.90;;;5.60;;
76826;SDS011;65788;52.284;20.890;2023-07-24T00:17:15;7.60;;;5.50;;
76826;SDS011;65788;52.284;20.890;2023-07-24T00:19:42;9.30;;;6.10;;
76826;SDS011;65788;52.284;20.890;2023-07-24T00:22:09;6.90;;;5.00;;
76826;SDS011;65788;52.284;20.890;2023-07-24T00:24:36;9.60;;;5.70;;
76826;SDS011;65788;52.284;20.890;2023-07-24T00:27:03;8.60;;;5.40;;
76826;SDS011;65788;52.284;20.890;2023-07-24T00:29:31;8.70;;;5.50;;
76826;SDS011;65788;52.284;20.890;2023-07-24T00:31:57;9.70;;;5.60;;
76826;SDS011;65788;52.284;20.890;2023-07-24T00:34:24;7.20;;;5.80;;
76826;SDS011;65788;52.284;20.890;2023-07-24T00:36:51;8.80;;;5.20;;
76826;SDS011;65788;52.284;20.890;2023-07-24T00:39:18;8.80;;;6.60;;
76826;SDS011;65788;52.284;20.890;2023-07-24T00:41:45;7.20;;;5.00;;
76826;SDS011;65788;52.284;20.890;2023-07-24T00:44:12;7.40;;;5.50;;
76826;SDS011;65788;52.284;20.890;2023-07-24T00:46:38;7.70;;;5.60;;
76826;SDS011;65788;52.284;20.890;2023-07-24T00:49:06;8.50;;;5.20;;
76826;SDS011;65788;52.284;20.890;2023-07-24T00:51:34;7.80;;;5.40;;
76826;SDS011;65788;52.284;20.890;2023-07-24T00:54:02;8.50;;;5.00;;
76826;SDS011;65788;52.284;20.890;2023-07-24T00:56:30;9.60;;;5.70;;
76826;SDS011;65788;52.284;20.890;2023-07-24T00:58:59;8.50;;;5.50;;
76826;SDS011;65788;52.284;20.890;2023-07-24T01:01:27;9.60;;;5.90;;
76826;SDS011;65788;52.284;20.890;2023-07-24T01:03:55;9.30;;;5.80;;
76826;SDS011;65788;52.284;20.890;2023-07-24T01:08:50;8.10;;;6.20;;
76826;SDS011;65788;52.284;20.890;2023-07-24T01:11:19;8.30;;;5.90;;
76826;SDS011;65788;52.284;20.890;2023-07-24T01:13:49;8.70;;;6.10;;
76826;SDS011;65788;52.284;20.890;2023-07-24T01:16:24;12.10;;;6.40;;
76826;SDS011;65788;52.284;20.890;2023-07-24T01:18:56;8.80;;;6.10;;
76826;SDS011;65788;52.284;20.890;2023-07-24T01:21:29;10.00;;;6.10;;
76826;SDS011;65788;52.284;20.890;2023-07-24T01:26:49;7.80;;;5.70;;
76826;SDS011;65788;52.284;20.890;2023-07-24T01:29:17;11.10;;;6.00;;
76826;SDS011;65788;52.284;20.890;2023-07-24T01:31:43;10.20;;;6.10;;
76826;SDS011;65788;52.284;20.890;2023-07-24T01:34:10;9.40;;;5.80;;
76826;SDS011;65788;52.284;20.890;2023-07-24T01:36:37;9.40;;;6.20;;
76826;SDS011;65788;52.284;20.890;2023-07-24T01:39:04;8.40;;;5.60;;
76826;SDS011;65788;52.284;20.890;2023-07-24T01:41:31;8.70;;;5.80;;
76826;SDS011;65788;52.284;20.890;2023-07-24T01:43:59;8.80;;;6.00;;
76826;SDS011;65788;52.284;20.890;2023-07-24T01:46:26;10.50;;;5.90;;
76826;SDS011;65788;52.284;20.890;2023-07-24T01:48:53;10.50;;;6.00;;
76826;SDS011;65788;52.284;20.890;2023-07-24T01:51:20;10.50;;;6.20;;
76826;SDS011;65788;52.284;20.890;2023-07-24T01:53:47;9.90;;;6.10;;
76826;SDS011;65788;52.284;20.890;2023-07-24T01:56:13;8.90;;;5.20;;
76826;SDS011;65788;52.284;20.890;2023-07-24T01:58:40;8.70;;;6.20;;
76826;SDS011;65788;52.284;20.890;2023-07-24T02:01:07;9.40;;;5.80;;
76826;SDS011;65788;52.284;20.890;2023-07-24T02:03:34;7.00;;;5.40;;
76826;SDS011;65788;52.284;20.890;2023-07-24T02:06:01;8.60;;;5.70;;
76826;SDS011;65788;52.284;20.890;2023-07-24T02:08:28;10.00;;;5.60;;
76826;SDS011;65788;52.284;20.890;2023-07-24T02:10:55;8.60;;;5.60;;
76826;SDS011;65788;52.284;20.890;2023-07-24T02:13:21;9.20;;;5.20;;
76826;SDS011;65788;52.284;20.890;2023-07-24T02:15:48;7.60;;;5.20;;
76826;SDS011;65788;52.284;20.890;2023-07-24T02:18:15;9.50;;;6.00;;
76826;SDS011;65788;52.284;20.890;2023-07-24T02:20:47;9.10;;;5.10;;
76826;SDS011;65788;52.284;20.890;2023-07-24T02:23:15;6.90;;;5.10;;
76826;SDS011;65788;52.284;20.890;2023-07-24T02:25:45;9.20;;;5.10;;
76826;SDS011;65788;52.284;20.890;2023-07-24T02:28:12;7.80;;;5.70;;
76826;SDS011;65788;52.284;20.890;2023-07-24T02:30:39;9.50;;;5.40;;
76826;SDS011;65788;52.284;20.890;2023-07-24T02:33:06;7.50;;;5.00;;
76826;SDS011;65788;52.284;20.890;2023-07-24T02:35:39;10.00;;;5.40;;
76826;SDS011;65788;52.284;20.890;2023-07-24T02:38:09;9.30;;;5.10;;
76826;SDS011;65788;52.284;20.890;2023-07-24T02:40:36;8.10;;;5.10;;
76826;SDS011;65788;52.284;20.890;2023-07-24T02:43:03;7.10;;;4.70;;
76826;SDS011;65788;52.284;20.890;2023-07-24T02:45:33;10.10;;;5.10;;
76826;SDS011;65788;52.284;20.890;2023-07-24T02:48:01;6.90;;;4.40;;
76826;SDS011;65788;52.284;20.890;2023-07-24T02:50:29;7.20;;;5.10;;
76826;SDS011;65788;52.284;20.890;2023-07-24T02:52:56;7.50;;;5.00;;
76826;SDS011;65788;52.284;20.890;2023-07-24T02:55:23;7.60;;;5.10;;
76826;SDS011;65788;52.284;20.890;2023-07-24T02:57:50;7.10;;;4.70;;
76826;SDS011;65788;52.284;20.890;2023-07-24T03:00:17;7.20;;;5.10;;
76826;SDS011;65788;52.284;20.890;2023-07-24T03:02:44;8.50;;;5.00;;
76826;SDS011;65788;52.284;20.890;2023-07-24T03:05:11;7.80;;;4.10;;
76826;SDS011;65788;52.284;20.890;2023-07-24T03:07:38;7.20;;;4.30;;
76826;SDS011;65788;52.284;20.890;2023-07-24T03:10:05;10.10;;;4.90;;
76826;SDS011;65788;52.284;20.890;2023-07-24T03:12:32;8.60;;;4.60;;
76826;SDS011;65788;52.284;20.890;2023-07-24T03:14:59;5.60;;;4.30;;
76826;SDS011;65788;52.284;20.890;2023-07-24T03:17:26;7.00;;;4.40;;
76826;SDS011;65788;52.284;20.890;2023-07-24T03:19:54;7.40;;;4.40;;
76826;SDS011;65788;52.284;20.890;2023-07-24T03:22:21;6.60;;;4.90;;
76826;SDS011;65788;52.284;20.890;2023-07-24T03:24:48;7.10;;;4.50;;
76826;SDS011;65788;52.284;20.890;2023-07-24T03:27:15;5.70;;;4.20;;
76826;SDS011;65788;52.284;20.890;2023-07-24T03:29:41;8.80;;;4.20;;
76826;SDS011;65788;52.284;20.890;2023-07-24T03:32:08;6.70;;;4.60;;
76826;SDS011;65788;52.284;20.890;2023-07-24T03:34:36;6.90;;;4.70;;
76826;SDS011;65788;52.284;20.890;2023-07-24T03:37:02;6.00;;;4.30;;
76826;SDS011;65788;52.284;20.890;2023-07-24T03:39:29;6.30;;;4.20;;
76826;SDS011;65788;52.284;20.890;2023-07-24T03:41:56;6.20;;;4.70;;
76826;SDS011;65788;52.284;20.890;2023-07-24T03:44:23;9.60;;;4.80;;
76826;SDS011;65788;52.284;20.890;2023-07-24T03:46:51;6.90;;;4.20;;
76826;SDS011;65788;52.284;20.890;2023-07-24T03:49:18;6.50;;;4.90;;
76826;SDS011;65788;52.284;20.890;2023-07-24T03:51:47;5.70;;;4.00;;
76826;SDS011;65788;52.284;20.890;2023-07-24T03:54:14;6.40;;;4.10;;
76826;SDS011;65788;52.284;20.890;2023-07-24T03:56:40;6.70;;;4.40;;
76826;SDS011;65788;52.284;20.890;2023-07-24T03:59:07;6.50;;;4.50;;
76826;SDS011;65788;52.284;20.890;2023-07-24T04:01:34;7.30;;;4.30;;
76826;SDS011;65788;52.284;20.890;2023-07-24T04:04:01;6.30;;;4.00;;
76826;SDS011;65788;52.284;20.890;2023-07-24T04:06:27;8.10;;;4.60;;
76826;SDS011;65788;52.284;20.890;2023-07-24T04:08:54;6.80;;;4.20;;
76826;SDS011;65788;52.284;20.890;2023-07-24T04:11:21;8.20;;;4.70;;
76826;SDS011;65788;52.284;20.890;2023-07-24T04:13:48;8.40;;;4.40;;
76826;SDS011;65788;52.284;20.890;2023-07-24T04:16:15;6.50;;;4.30;;
76826;SDS011;65788;52.284;20.890;2023-07-24T04:18:41;6.70;;;4.20;;
76826;SDS011;65788;52.284;20.890;2023-07-24T04:21:08;8.10;;;3.90;;
76826;SDS011;65788;52.284;20.890;2023-07-24T04:23:35;7.00;;;4.10;;
76826;SDS011;65788;52.284;20.890;2023-07-24T04:26:02;8.30;;;5.00;;
76826;SDS011;65788;52.284;20.890;2023-07-24T04:28:29;6.50;;;4.30;;
76826;SDS011;65788;52.284;20.890;2023-07-24T04:30:59;5.90;;;4.40;;
76826;SDS011;65788;52.284;20.890;2023-07-24T04:33:27;5.90;;;4.20;;
76826;SDS011;65788;52.284;20.890;2023-07-24T04:35:54;6.50;;;3.90;;
76826;SDS011;65788;52.284;20.890;2023-07-24T04:38:22;6.40;;;4.10;;
76826;SDS011;65788;52.284;20.890;2023-07-24T04:40:48;6.50;;;3.90;;
76826;SDS011;65788;52.284;20.890;2023-07-24T04:43:15;7.40;;;4.20;;
76826;SDS011;65788;52.284;20.890;2023-07-24T04:45:42;6.10;;;4.00;;
76826;SDS011;65788;52.284;20.890;2023-07-24T04:48:09;8.30;;;3.90;;
76826;SDS011;65788;52.284;20.890;2023-07-24T04:50:36;5.70;;;4.00;;
76826;SDS011;65788;52.284;20.890;2023-07-24T04:53:03;5.30;;;3.50;;
76826;SDS011;65788;52.284;20.890;2023-07-24T04:55:31;6.30;;;4.10;;
76826;SDS011;65788;52.284;20.890;2023-07-24T04:57:57;5.80;;;3.50;;
76826;SDS011;65788;52.284;20.890;2023-07-24T05:00:24;5.90;;;3.70;;
76826;SDS011;65788;52.284;20.890;2023-07-24T05:02:52;6.30;;;4.20;;
76826;SDS011;65788;52.284;20.890;2023-07-24T05:05:19;5.50;;;4.20;;
76826;SDS011;65788;52.284;20.890;2023-07-24T05:07:46;7.70;;;3.70;;
76826;SDS011;65788;52.284;20.890;2023-07-24T05:10:13;6.30;;;3.90;;
76826;SDS011;65788;52.284;20.890;2023-07-24T05:12:41;9.70;;;4.10;;
76826;SDS011;65788;52.284;20.890;2023-07-24T05:15:09;6.20;;;4.40;;
76826;SDS011;65788;52.284;20.890;2023-07-24T05:17:36;6.90;;;4.40;;
76826;SDS011;65788;52.284;20.890;2023-07-24T05:20:03;6.50;;;3.90;;
76826;SDS011;65788;52.284;20.890;2023-07-24T05:22:31;7.20;;;4.00;;
76826;SDS011;65788;52.284;20.890;2023-07-24T05:24:57;7.80;;;4.20;;
76826;SDS011;65788;52.284;20.890;2023-07-24T05:27:24;6.50;;;4.20;;
76826;SDS011;65788;52.284;20.890;2023-07-24T05:29:51;5.30;;;3.70;;
76826;SDS011;65788;52.284;20.890;2023-07-24T05:32:19;8.40;;;4.30;;
76826;SDS011;65788;52.284;20.890;2023-07-24T05:34:46;7.50;;;4.50;;
76826;SDS011;65788;52.284;20.890;2023-07-24T05:37:12;6.30;;;4.00;;
76826;SDS011;65788;52.284;20.890;2023-07-24T05:39:39;6.60;;;4.20;;
76826;SDS011;65788;52.284;20.890;2023-07-24T05:42:06;6.30;;;3.70;;
76826;SDS011;65788;52.284;20.890;2023-07-24T05:44:32;5.80;;;3.90;;
76826;SDS011;65788;52.284;20.890;2023-07-24T05:47:02;6.20;;;3.60;;
76826;SDS011;65788;52.284;20.890;2023-07-24T05:49:30;5.90;;;4.00;;
76826;SDS011;65788;52.284;20.890;2023-07-24T05:51:56;7.30;;;4.70;;
76826;SDS011;65788;52.284;20.890;2023-07-24T05:54:24;6.90;;;4.00;;
76826;SDS011;65788;52.284;20.890;2023-07-24T05:56:51;7.70;;;4.30;;
76826;SDS011;65788;52.284;20.890;2023-07-24T05:59:18;8.20;;;4.00;;
76826;SDS011;65788;52.284;20.890;2023-07-24T06:01:45;7.20;;;4.30;;
76826;SDS011;65788;52.284;20.890;2023-07-24T06:04:12;6.30;;;3.70;;
76826;SDS011;65788;52.284;20.890;2023-07-24T06:06:38;6.90;;;3.90;;
76826;SDS011;65788;52.284;20.890;2023-07-24T06:09:06;7.90;;;4.40;;
76826;SDS011;65788;52.284;20.890;2023-07-24T06:11:33;6.50;;;3.70;;
76826;SDS011;65788;52.284;20.890;2023-07-24T06:14:00;5.70;;;3.70;;
76826;SDS011;65788;52.284;20.890;2023-07-24T06:16:27;10.00;;;3.90;;
76826;SDS011;65788;52.284;20.890;2023-07-24T06:18:53;9.70;;;3.90;;
76826;SDS011;65788;52.284;20.890;2023-07-24T06:21:20;5.60;;;3.50;;
76826;SDS011;65788;52.284;20.890;2023-07-24T06:23:47;6.80;;;4.00;;
76826;SDS011;65788;52.284;20.890;2023-07-24T06:26:14;6.80;;;3.50;;
76826;SDS011;65788;52.284;20.890;2023-07-24T06:28:41;7.50;;;3.90;;
76826;SDS011;65788;52.284;20.890;2023-07-24T06:31:08;6.30;;;3.80;;
76826;SDS011;65788;52.284;20.890;2023-07-24T06:33:34;7.40;;;4.10;;
76826;SDS011;65788;52.284;20.890;2023-07-24T06:36:01;5.00;;;3.60;;
76826;SDS011;65788;52.284;20.890;2023-07-24T06:38:28;7.00;;;3.70;;
76826;SDS011;65788;52.284;20.890;2023-07-24T06:40:55;7.40;;;3.80;;
76826;SDS011;65788;52.284;20.890;2023-07-24T06:43:21;6.50;;;3.70;;
76826;SDS011;65788;52.284;20.890;2023-07-24T06:45:48;7.60;;;4.20;;
76826;SDS011;65788;52.284;20.890;2023-07-24T06:48:15;8.80;;;4.50;;
76826;SDS011;65788;52.284;20.890;2023-07-24T06:50:42;10.30;;;4.20;;
76826;SDS011;65788;52.284;20.890;2023-07-24T06:53:08;6.50;;;4.20;;
76826;SDS011;65788;52.284;20.890;2023-07-24T06:55:35;5.80;;;3.70;;
76826;SDS011;65788;52.284;20.890;2023-07-24T06:58:02;7.00;;;4.10;;
76826;SDS011;65788;52.284;20.890;2023-07-24T07:00:29;6.60;;;4.40;;
76826;SDS011;65788;52.284;20.890;2023-07-24T07:02:55;7.00;;;4.90;;
76826;SDS011;65788;52.284;20.890;2023-07-24T07:05:22;9.40;;;4.60;;
76826;SDS011;65788;52.284;20.890;2023-07-24T07:07:49;8.70;;;4.60;;
76826;SDS011;65788;52.284;20.890;2023-07-24T07:10:17;9.90;;;5.00;;
76826;SDS011;65788;52.284;20.890;2023-07-24T07:12:44;12.70;;;4.50;;
76826;SDS011;65788;52.284;20.890;2023-07-24T07:15:11;8.70;;;4.30;;
76826;SDS011;65788;52.284;20.890;2023-07-24T07:17:40;8.30;;;4.40;;
76826;SDS011;65788;52.284;20.890;2023-07-24T07:20:07;11.50;;;4.00;;
76826;SDS011;65788;52.284;20.890;2023-07-24T07:25:02;7.40;;;4.50;;
76826;SDS011;65788;52.284;20.890;2023-07-24T07:27:29;6.30;;;3.80;;
76826;SDS011;65788;52.284;20.890;2023-07-24T07:29:56;7.20;;;3.70;;
76826;SDS011;65788;52.284;20.890;2023-07-24T07:32:23;9.00;;;4.20;;
76826;SDS011;65788;52.284;20.890;2023-07-24T07:34:53;8.50;;;3.50;;
76826;SDS011;65788;52.284;20.890;2023-07-24T07:37:20;9.40;;;3.90;;
76826;SDS011;65788;52.284;20.890;2023-07-24T07:39:46;7.70;;;3.30;;
76826;SDS011;65788;52.284;20.890;2023-07-24T07:42:13;5.30;;;2.80;;
76826;SDS011;65788;52.284;20.890;2023-07-24T07:44:40;5.40;;;3.10;;
76826;SDS011;65788;52.284;20.890;2023-07-24T07:47:07;4.90;;;3.20;;
76826;SDS011;65788;52.284;20.890;2023-07-24T07:49:34;6.50;;;3.00;;
76826;SDS011;65788;52.284;20.890;2023-07-24T07:52:00;7.00;;;3.10;;
76826;SDS011;65788;52.284;20.890;2023-07-24T07:54:27;3.60;;;2.50;;
76826;SDS011;65788;52.284;20.890;2023-07-24T07:56:54;5.40;;;3.30;;
76826;SDS011;65788;52.284;20.890;2023-07-24T07:59:20;7.10;;;3.00;;
76826;SDS011;65788;52.284;20.890;2023-07-24T08:01:48;5.30;;;3.20;;
76826;SDS011;65788;52.284;20.890;2023-07-24T08:04:14;4.90;;;2.40;;
76826;SDS011;65788;52.284;20.890;2023-07-24T08:06:42;4.40;;;2.70;;
76826;SDS011;65788;52.284;20.890;2023-07-24T08:09:08;4.40;;;2.70;;
76826;SDS011;65788;52.284;20.890;2023-07-24T08:11:35;5.40;;;3.00;;
76826;SDS011;65788;52.284;20.890;2023-07-24T08:14:02;3.70;;;2.70;;
76826;SDS011;65788;52.284;20.890;2023-07-24T08:16:29;6.00;;;2.80;;
76826;SDS011;65788;52.284;20.890;2023-07-24T08:18:56;5.20;;;2.80;;
76826;SDS011;65788;52.284;20.890;2023-07-24T08:21:22;5.10;;;2.80;;
76826;SDS011;65788;52.284;20.890;2023-07-24T08:23:49;4.30;;;2.90;;
76826;SDS011;65788;52.284;20.890;2023-07-24T08:26:16;6.10;;;3.00;;
76826;SDS011;65788;52.284;20.890;2023-07-24T08:28:43;6.30;;;2.90;;
76826;SDS011;65788;52.284;20.890;2023-07-24T08:31:10;6.30;;;2.60;;
76826;SDS011;65788;52.284;20.890;2023-07-24T08:33:37;5.00;;;2.90;;
76826;SDS011;65788;52.284;20.890;2023-07-24T08:36:05;5.70;;;2.60;;
76826;SDS011;65788;52.284;20.890;2023-07-24T08:38:37;4.80;;;3.10;;
76826;SDS011;65788;52.284;20.890;2023-07-24T08:41:05;4.80;;;3.30;;
76826;SDS011;65788;52.284;20.890;2023-07-24T08:43:34;4.70;;;3.10;;
76826;SDS011;65788;52.284;20.890;2023-07-24T08:46:02;5.70;;;3.30;;
76826;SDS011;65788;52.284;20.890;2023-07-24T08:48:39;6.00;;;3.10;;
76826;SDS011;65788;52.284;20.890;2023-07-24T08:51:14;6.40;;;3.30;;
76826;SDS011;65788;52.284;20.890;2023-07-24T08:53:48;4.50;;;3.00;;
76826;SDS011;65788;52.284;20.890;2023-07-24T08:56:16;6.20;;;2.90;;
76826;SDS011;65788;52.284;20.890;2023-07-24T08:58:43;4.30;;;2.60;;
76826;SDS011;65788;52.284;20.890;2023-07-24T09:01:09;6.20;;;3.50;;
76826;SDS011;65788;52.284;20.890;2023-07-24T09:03:37;4.50;;;3.30;;
76826;SDS011;65788;52.284;20.890;2023-07-24T09:06:03;4.50;;;3.10;;
76826;SDS011;65788;52.284;20.890;2023-07-24T09:11:02;5.60;;;3.10;;
76826;SDS011;65788;52.284;20.890;2023-07-24T09:13:30;5.80;;;3.00;;
76826;SDS011;65788;52.284;20.890;2023-07-24T09:16:00;4.90;;;3.00;;
76826;SDS011;65788;52.284;20.890;2023-07-24T09:18:26;6.30;;;3.30;;
76826;SDS011;65788;52.284;20.890;2023-07-24T09:20:53;6.10;;;3.30;;
76826;SDS011;65788;52.284;20.890;2023-07-24T09:23:26;5.90;;;3.30;;
76826;SDS011;65788;52.284;20.890;2023-07-24T09:25:54;4.40;;;2.90;;
76826;SDS011;65788;52.284;20.890;2023-07-24T09:28:21;4.00;;;2.80;;
76826;SDS011;65788;52.284;20.890;2023-07-24T09:30:55;4.90;;;3.30;;
76826;SDS011;65788;52.284;20.890;2023-07-24T09:33:33;5.10;;;3.10;;
76826;SDS011;65788;52.284;20.890;2023-07-24T09:36:03;5.40;;;4.00;;
76826;SDS011;65788;52.284;20.890;2023-07-24T09:41:01;4.90;;;3.00;;
76826;SDS011;65788;52.284;20.890;2023-07-24T09:43:30;5.90;;;3.40;;
76826;SDS011;65788;52.284;20.890;2023-07-24T09:45:57;4.90;;;2.60;;
76826;SDS011;65788;52.284;20.890;2023-07-24T09:48:27;5.00;;;2.90;;
76826;SDS011;65788;52.284;20.890;2023-07-24T09:50:55;6.70;;;3.30;;
76826;SDS011;65788;52.284;20.890;2023-07-24T09:53:26;5.40;;;3.20;;
76826;SDS011;65788;52.284;20.890;2023-07-24T09:55:56;5.10;;;3.10;;
76826;SDS011;65788;52.284;20.890;2023-07-24T09:58:25;4.90;;;3.40;;
76826;SDS011;65788;52.284;20.890;2023-07-24T10:00:53;4.10;;;2.80;;
76826;SDS011;65788;52.284;20.890;2023-07-24T10:03:21;4.80;;;3.00;;
76826;SDS011;65788;52.284;20.890;2023-07-24T10:05:49;5.50;;;2.70;;
76826;SDS011;65788;52.284;20.890;2023-07-24T10:08:18;4.50;;;2.80;;
76826;SDS011;65788;52.284;20.890;2023-07-24T10:10:45;6.30;;;2.90;;
76826;SDS011;65788;52.284;20.890;2023-07-24T10:13:12;4.90;;;3.20;;
76826;SDS011;65788;52.284;20.890;2023-07-24T10:15:41;4.70;;;3.00;;
76826;SDS011;65788;52.284;20.890;2023-07-24T10:18:09;4.80;;;3.10;;
76826;SDS011;65788;52.284;20.890;2023-07-24T10:20:37;5.80;;;3.60;;
76826;SDS011;65788;52.284;20.890;2023-07-24T10:23:07;4.60;;;2.70;;
76826;SDS011;65788;52.284;20.890;2023-07-24T10:25:36;4.10;;;2.50;;
76826;SDS011;65788;52.284;20.890;2023-07-24T10:28:07;4.00;;;2.90;;
76826;SDS011;65788;52.284;20.890;2023-07-24T10:30:37;5.40;;;2.90;;
76826;SDS011;65788;52.284;20.890;2023-07-24T10:33:09;5.10;;;2.60;;
76826;SDS011;65788;52.284;20.890;2023-07-24T10:36:05;4.60;;;3.00;;
76826;SDS011;65788;52.284;20.890;2023-07-24T10:38:39;3.80;;;2.40;;
76826;SDS011;65788;52.284;20.890;2023-07-24T10:41:08;5.40;;;3.10;;
76826;SDS011;65788;52.284;20.890;2023-07-24T10:43:40;5.00;;;2.80;;
76826;SDS011;65788;52.284;20.890;2023-07-24T10:46:12;5.80;;;2.90;;
76826;SDS011;65788;52.284;20.890;2023-07-24T10:48:43;4.10;;;2.70;;
76826;SDS011;65788;52.284;20.890;2023-07-24T10:51:12;4.90;;;2.60;;
76826;SDS011;65788;52.284;20.890;2023-07-24T10:53:44;4.00;;;2.50;;
76826;SDS011;65788;52.284;20.890;2023-07-24T10:56:15;6.20;;;3.30;;
76826;SDS011;65788;52.284;20.890;2023-07-24T10:58:43;4.10;;;2.80;;
76826;SDS011;65788;52.284;20.890;2023-07-24T11:01:10;5.10;;;2.90;;
76826;SDS011;65788;52.284;20.890;2023-07-24T11:03:37;4.60;;;2.80;;
76826;SDS011;65788;52.284;20.890;2023-07-24T11:06:19;4.10;;;2.60;;
76826;SDS011;65788;52.284;20.890;2023-07-24T11:08:51;4.60;;;2.90;;
76826;SDS011;65788;52.284;20.890;2023-07-24T11:11:19;5.90;;;2.90;;
76826;SDS011;65788;52.284;20.890;2023-07-24T11:13:46;4.20;;;2.70;;
76826;SDS011;65788;52.284;20.890;2023-07-24T11:16:12;3.80;;;2.90;;
76826;SDS011;65788;52.284;20.890;2023-07-24T11:18:46;5.70;;;3.00;;
76826;SDS011;65788;52.284;20.890;2023-07-24T11:21:15;7.70;;;3.00;;
76826;SDS011;65788;52.284;20.890;2023-07-24T11:23:52;5.60;;;2.80;;
76826;SDS011;65788;52.284;20.890;2023-07-24T11:26:20;8.50;;;2.90;;
76826;SDS011;65788;52.284;20.890;2023-07-24T11:28:49;5.30;;;3.10;;
76826;SDS011;65788;52.284;20.890;2023-07-24T11:31:16;6.40;;;3.00;;
76826;SDS011;65788;52.284;20.890;2023-07-24T11:33:49;6.90;;;3.00;;
76826;SDS011;65788;52.284;20.890;2023-07-24T11:36:17;4.20;;;3.00;;
76826;SDS011;65788;52.284;20.890;2023-07-24T11:38:45;5.40;;;3.50;;
76826;SDS011;65788;52.284;20.890;2023-07-24T11:41:13;4.60;;;3.10;;
76826;SDS011;65788;52.284;20.890;2023-07-24T11:43:49;4.80;;;3.20;;
76826;SDS011;65788;52.284;20.890;2023-07-24T11:46:26;7.30;;;3.50;;
76826;SDS011;65788;52.284;20.890;2023-07-24T11:48:55;4.70;;;3.50;;
76826;SDS011;65788;52.284;20.890;2023-07-24T11:51:25;5.60;;;3.70;;
76826;SDS011;65788;52.284;20.890;2023-07-24T11:54:03;6.70;;;4.00;;
76826;SDS011;65788;52.284;20.890;2023-07-24T11:56:34;5.50;;;3.50;;
76826;SDS011;65788;52.284;20.890;2023-07-24T11:59:11;7.20;;;3.80;;
76826;SDS011;65788;52.284;20.890;2023-07-24T12:01:45;4.40;;;3.20;;
76826;SDS011;65788;52.284;20.890;2023-07-24T12:04:14;6.80;;;3.40;;
76826;SDS011;65788;52.284;20.890;2023-07-24T12:06:42;4.40;;;3.00;;
76826;SDS011;65788;52.284;20.890;2023-07-24T12:09:10;5.60;;;3.50;;
76826;SDS011;65788;52.284;20.890;2023-07-24T12:11:42;5.10;;;3.10;;
76826;SDS011;65788;52.284;20.890;2023-07-24T12:14:10;6.60;;;3.40;;
76826;SDS011;65788;52.284;20.890;2023-07-24T12:16:38;5.90;;;4.00;;
76826;SDS011;65788;52.284;20.890;2023-07-24T12:19:05;7.00;;;3.80;;
76826;SDS011;65788;52.284;20.890;2023-07-24T12:21:32;8.90;;;4.00;;
76826;SDS011;65788;52.284;20.890;2023-07-24T12:23:59;7.50;;;4.10;;
76826;SDS011;65788;52.284;20.890;2023-07-24T12:26:26;7.80;;;3.80;;
76826;SDS011;65788;52.284;20.890;2023-07-24T12:28:54;5.70;;;3.60;;
76826;SDS011;65788;52.284;20.890;2023-07-24T12:31:21;5.10;;;3.40;;
76826;SDS011;65788;52.284;20.890;2023-07-24T12:33:47;6.40;;;3.60;;
76826;SDS011;65788;52.284;20.890;2023-07-24T12:36:14;6.00;;;3.80;;
76826;SDS011;65788;52.284;20.890;2023-07-24T12:38:41;7.50;;;3.80;;
76826;SDS011;65788;52.284;20.890;2023-07-24T12:41:08;7.80;;;4.00;;
76826;SDS011;65788;52.284;20.890;2023-07-24T12:43:35;7.00;;;4.30;;
76826;SDS011;65788;52.284;20.890;2023-07-24T12:46:01;7.80;;;4.10;;
76826;SDS011;65788;52.284;20.890;2023-07-24T12:48:28;9.90;;;5.10;;
76826;SDS011;65788;52.284;20.890;2023-07-24T12:50:54;8.60;;;4.90;;
76826;SDS011;65788;52.284;20.890;2023-07-24T12:53:24;9.10;;;4.50;;
76826;SDS011;65788;52.284;20.890;2023-07-24T12:55:51;7.30;;;4.20;;
76826;SDS011;65788;52.284;20.890;2023-07-24T12:58:18;6.10;;;5.00;;
76826;SDS011;65788;52.284;20.890;2023-07-24T13:00:44;7.60;;;4.60;;
76826;SDS011;65788;52.284;20.890;2023-07-24T13:03:11;6.40;;;4.30;;
76826;SDS011;65788;52.284;20.890;2023-07-24T13:05:37;6.70;;;4.00;;
76826;SDS011;65788;52.284;20.890;2023-07-24T13:08:05;7.20;;;4.60;;
76826;SDS011;65788;52.284;20.890;2023-07-24T13:10:31;6.90;;;4.30;;
76826;SDS011;65788;52.284;20.890;2023-07-24T13:12:58;5.70;;;4.10;;
76826;SDS011;65788;52.284;20.890;2023-07-24T13:15:25;6.60;;;4.30;;
76826;SDS011;65788;52.284;20.890;2023-07-24T13:17:52;6.70;;;4.00;;
76826;SDS011;65788;52.284;20.890;2023-07-24T13:20:19;7.20;;;3.70;;
76826;SDS011;65788;52.284;20.890;2023-07-24T13:22:45;6.50;;;3.90;;
76826;SDS011;65788;52.284;20.890;2023-07-24T13:25:15;6.40;;;4.30;;
76826;SDS011;65788;52.284;20.890;2023-07-24T13:27:42;6.30;;;4.00;;
76826;SDS011;65788;52.284;20.890;2023-07-24T13:30:09;6.50;;;3.70;;
76826;SDS011;65788;52.284;20.890;2023-07-24T13:32:36;5.80;;;3.80;;
76826;SDS011;65788;52.284;20.890;2023-07-24T13:35:03;7.10;;;3.60;;
76826;SDS011;65788;52.284;20.890;2023-07-24T13:37:30;7.20;;;3.90;;
76826;SDS011;65788;52.284;20.890;2023-07-24T13:39:57;5.90;;;4.40;;
76826;SDS011;65788;52.284;20.890;2023-07-24T13:42:23;5.20;;;3.60;;
76826;SDS011;65788;52.284;20.890;2023-07-24T13:44:50;6.80;;;3.70;;
76826;SDS011;65788;52.284;20.890;2023-07-24T13:47:17;5.90;;;4.00;;
76826;SDS011;65788;52.284;20.890;2023-07-24T13:49:43;7.50;;;3.60;;
76826;SDS011;65788;52.284;20.890;2023-07-24T13:52:10;7.40;;;4.10;;
76826;SDS011;65788;52.284;20.890;2023-07-24T13:54:37;8.20;;;4.10;;
76826;SDS011;65788;52.284;20.890;2023-07-24T13:57:04;5.80;;;3.70;;
76826;SDS011;65788;52.284;20.890;2023-07-24T13:59:34;6.00;;;3.20;;
76826;SDS011;65788;52.284;20.890;2023-07-24T14:02:02;6.30;;;3.60;;
76826;SDS011;65788;52.284;20.890;2023-07-24T14:04:28;8.80;;;3.70;;
76826;SDS011;65788;52.284;20.890;2023-07-24T14:06:55;8.60;;;3.60;;
76826;SDS011;65788;52.284;20.890;2023-07-24T14:09:22;6.00;;;3.90;;
76826;SDS011;65788;52.284;20.890;2023-07-24T14:11:48;7.30;;;3.90;;
76826;SDS011;65788;52.284;20.890;2023-07-24T14:14:15;8.00;;;3.80;;
76826;SDS011;65788;52.284;20.890;2023-07-24T14:16:44;6.70;;;4.20;;
76826;SDS011;65788;52.284;20.890;2023-07-24T14:19:10;9.10;;;3.40;;
76826;SDS011;65788;52.284;20.890;2023-07-24T14:21:37;9.50;;;4.10;;
76826;SDS011;65788;52.284;20.890;2023-07-24T14:24:04;4.90;;;3.10;;
76826;SDS011;65788;52.284;20.890;2023-07-24T14:26:31;4.80;;;3.20;;
76826;SDS011;65788;52.284;20.890;2023-07-24T14:28:58;5.70;;;3.00;;
76826;SDS011;65788;52.284;20.890;2023-07-24T14:31:24;5.80;;;4.00;;
76826;SDS011;65788;52.284;20.890;2023-07-24T14:33:51;5.00;;;3.40;;
76826;SDS011;65788;52.284;20.890;2023-07-24T14:36:18;5.70;;;2.70;;
76826;SDS011;65788;52.284;20.890;2023-07-24T14:38:45;4.50;;;3.20;;
76826;SDS011;65788;52.284;20.890;2023-07-24T14:41:12;6.10;;;3.10;;
76826;SDS011;65788;52.284;20.890;2023-07-24T14:43:42;7.70;;;3.30;;
76826;SDS011;65788;52.284;20.890;2023-07-24T14:46:09;4.70;;;3.40;;
76826;SDS011;65788;52.284;20.890;2023-07-24T14:48:35;6.90;;;3.20;;